sensor_id;sensor_type;location;lat;lon;timestamp;P1;durP1;ratioP1;P2;durP2;ratioP2
36597;SDS011;22607;49.550;11.940;2023-07-08T00:01:07;9.57;;;3.75;;
36597;SDS011;22607;49.550;11.940;2023-07-08T00:03:36;9.88;;;4.07;;
36597;SDS011;22607;49.550;11.940;2023-07-08T00:06:03;8.07;;;3.35;;
36597;SDS011;22607;49.550;11.940;2023-07-08T00:08:29;8.82;;;3.60;;
36597;SDS011;22607;49.550;11.940;2023-07-08T00:10:56;8.05;;;3.60;;
36597;SDS011;22607;49.550;11.940;2023-07-08T00:13:23;8.13;;;3.50;;
36597;SDS011;22607;49.550;11.940;2023-07-08T00:15:49;9.82;;;3.58;;
36597;SDS011;22607;49.550;11.940;2023-07-08T00:18:16;8.93;;;3.88;;
36597;SDS011;22607;49.550;11.940;2023-07-08T00:20:44;8.25;;;3.70;;
36597;SDS011;22607;49.550;11.940;2023-07-08T00:23:13;8.20;;;3.90;;
36597;SDS011;22607;49.550;11.940;2023-07-08T00:25:40;7.93;;;3.42;;
36597;SDS011;22607;49.550;11.940;2023-07-08T00:28:18;7.80;;;3.33;;
36597;SDS011;22607;49.550;11.940;2023-07-08T00:30:46;9.52;;;3.67;;
36597;SDS011;22607;49.550;11.940;2023-07-08T00:33:14;8.00;;;3.50;;
36597;SDS011;22607;49.550;11.940;2023-07-08T00:35:41;8.18;;;3.25;;
36597;SDS011;22607;49.550;11.940;2023-07-08T00:40:57;9.63;;;4.05;;
36597;SDS011;22607;49.550;11.940;2023-07-08T00:43:30;7.88;;;3.40;;
36597;SDS011;22607;49.550;11.940;2023-07-08T00:49:03;9.13;;;3.72;;
36597;SDS011;22607;49.550;11.940;2023-07-08T00:51:37;8.88;;;3.80;;
36597;SDS011;22607;49.550;11.940;2023-07-08T00:54:15;9.60;;;4.13;;
36597;SDS011;22607;49.550;11.940;2023-07-08T01:01:50;9.15;;;3.95;;
36597;SDS011;22607;49.550;11.940;2023-07-08T01:04:21;8.80;;;4.18;;
36597;SDS011;22607;49.550;11.940;2023-07-08T01:06:55;9.23;;;3.60;;
36597;SDS011;22607;49.550;11.940;2023-07-08T01:09:27;9.07;;;4.30;;
36597;SDS011;22607;49.550;11.940;2023-07-08T01:11:58;8.30;;;3.53;;
36597;SDS011;22607;49.550;11.940;2023-07-08T01:14:29;8.32;;;3.55;;
36597;SDS011;22607;49.550;11.940;2023-07-08T01:16:59;8.85;;;3.90;;
36597;SDS011;22607;49.550;11.940;2023-07-08T01:19:26;8.80;;;3.90;;
36597;SDS011;22607;49.550;11.940;2023-07-08T01:22:04;9.85;;;3.90;;
36597;SDS011;22607;49.550;11.940;2023-07-08T01:24:32;9.48;;;4.32;;
36597;SDS011;22607;49.550;11.940;2023-07-08T01:27:01;9.90;;;4.30;;
36597;SDS011;22607;49.550;11.940;2023-07-08T01:29:30;9.07;;;4.28;;
36597;SDS011;22607;49.550;11.940;2023-07-08T01:31:57;8.68;;;3.80;;
36597;SDS011;22607;49.550;11.940;2023-07-08T01:34:25;10.18;;;4.25;;
36597;SDS011;22607;49.550;11.940;2023-07-08T01:36:52;10.38;;;4.32;;
36597;SDS011;22607;49.550;11.940;2023-07-08T01:39:22;8.80;;;3.88;;
36597;SDS011;22607;49.550;11.940;2023-07-08T01:41:50;10.07;;;4.28;;
36597;SDS011;22607;49.550;11.940;2023-07-08T01:47:02;8.98;;;3.97;;
36597;SDS011;22607;49.550;11.940;2023-07-08T01:49:35;8.75;;;4.13;;
36597;SDS011;22607;49.550;11.940;2023-07-08T01:52:03;8.40;;;3.58;;
36597;SDS011;22607;49.550;11.940;2023-07-08T01:54:30;8.25;;;3.50;;
36597;SDS011;22607;49.550;11.940;2023-07-08T01:56:57;8.48;;;3.72;;
36597;SDS011;22607;49.550;11.940;2023-07-08T01:59:24;8.75;;;3.92;;
36597;SDS011;22607;49.550;11.940;2023-07-08T02:01:51;9.35;;;4.03;;
36597;SDS011;22607;49.550;11.940;2023-07-08T02:04:22;9.27;;;3.90;;
36597;SDS011;22607;49.550;11.940;2023-07-08T02:06:54;9.70;;;4.10;;
36597;SDS011;22607;49.550;11.940;2023-07-08T02:09:22;9.27;;;3.72;;
36597;SDS011;22607;49.550;11.940;2023-07-08T02:11:49;9.30;;;3.72;;
36597;SDS011;22607;49.550;11.940;2023-07-08T02:14:15;9.80;;;3.95;;
36597;SDS011;22607;49.550;11.940;2023-07-08T02:16:42;8.43;;;3.70;;
36597;SDS011;22607;49.550;11.940;2023-07-08T02:19:09;8.60;;;3.70;;
36597;SDS011;22607;49.550;11.940;2023-07-08T02:21:36;8.85;;;3.72;;
36597;SDS011;22607;49.550;11.940;2023-07-08T02:24:03;9.20;;;3.67;;
36597;SDS011;22607;49.550;11.940;2023-07-08T02:26:30;10.32;;;3.70;;
36597;SDS011;22607;49.550;11.940;2023-07-08T02:28:58;8.15;;;3.53;;
36597;SDS011;22607;49.550;11.940;2023-07-08T02:31:26;8.05;;;3.60;;
36597;SDS011;22607;49.550;11.940;2023-07-08T02:33:59;7.95;;;3.75;;
36597;SDS011;22607;49.550;11.940;2023-07-08T02:36:26;9.93;;;3.50;;
36597;SDS011;22607;49.550;11.940;2023-07-08T02:38:52;8.10;;;3.25;;
36597;SDS011;22607;49.550;11.940;2023-07-08T02:41:19;8.10;;;3.42;;
36597;SDS011;22607;49.550;11.940;2023-07-08T02:43:45;8.57;;;3.90;;
36597;SDS011;22607;49.550;11.940;2023-07-08T02:46:12;8.70;;;3.35;;
36597;SDS011;22607;49.550;11.940;2023-07-08T02:48:39;10.95;;;3.80;;
36597;SDS011;22607;49.550;11.940;2023-07-08T02:51:06;9.20;;;3.80;;
36597;SDS011;22607;49.550;11.940;2023-07-08T02:53:34;9.30;;;4.18;;
36597;SDS011;22607;49.550;11.940;2023-07-08T02:56:01;8.23;;;3.40;;
36597;SDS011;22607;49.550;11.940;2023-07-08T02:58:28;8.50;;;3.90;;
36597;SDS011;22607;49.550;11.940;2023-07-08T03:00:56;9.45;;;3.78;;
36597;SDS011;22607;49.550;11.940;2023-07-08T03:03:28;8.43;;;3.63;;
36597;SDS011;22607;49.550;11.940;2023-07-08T03:05:58;9.13;;;3.70;;
36597;SDS011;22607;49.550;11.940;2023-07-08T03:08:29;9.85;;;3.40;;
36597;SDS011;22607;49.550;11.940;2023-07-08T03:10:57;8.98;;;3.47;;
36597;SDS011;22607;49.550;11.940;2023-07-08T03:13:25;8.43;;;3.45;;
36597;SDS011;22607;49.550;11.940;2023-07-08T03:15:53;8.68;;;3.53;;
36597;SDS011;22607;49.550;11.940;2023-07-08T03:18:23;8.18;;;3.55;;
36597;SDS011;22607;49.550;11.940;2023-07-08T03:20:50;7.80;;;3.30;;
36597;SDS011;22607;49.550;11.940;2023-07-08T03:23:17;8.60;;;3.65;;
36597;SDS011;22607;49.550;11.940;2023-07-08T03:25:43;9.13;;;3.70;;
36597;SDS011;22607;49.550;11.940;2023-07-08T03:28:10;8.85;;;3.45;;
36597;SDS011;22607;49.550;11.940;2023-07-08T03:30:41;8.63;;;3.63;;
36597;SDS011;22607;49.550;11.940;2023-07-08T03:33:08;8.30;;;3.50;;
36597;SDS011;22607;49.550;11.940;2023-07-08T03:35:35;8.48;;;3.42;;
36597;SDS011;22607;49.550;11.940;2023-07-08T03:38:02;7.70;;;3.30;;
36597;SDS011;22607;49.550;11.940;2023-07-08T03:40:29;8.55;;;3.63;;
36597;SDS011;22607;49.550;11.940;2023-07-08T03:42:56;8.75;;;3.70;;
36597;SDS011;22607;49.550;11.940;2023-07-08T03:45:23;9.38;;;3.50;;
36597;SDS011;22607;49.550;11.940;2023-07-08T03:47:51;8.07;;;3.40;;
36597;SDS011;22607;49.550;11.940;2023-07-08T03:50:19;9.75;;;3.50;;
36597;SDS011;22607;49.550;11.940;2023-07-08T03:52:47;8.25;;;3.30;;
36597;SDS011;22607;49.550;11.940;2023-07-08T03:55:15;8.85;;;3.67;;
36597;SDS011;22607;49.550;11.940;2023-07-08T03:57:41;8.85;;;3.42;;
36597;SDS011;22607;49.550;11.940;2023-07-08T04:00:08;8.63;;;3.83;;
36597;SDS011;22607;49.550;11.940;2023-07-08T04:02:35;8.50;;;3.70;;
36597;SDS011;22607;49.550;11.940;2023-07-08T04:05:02;8.45;;;3.30;;
36597;SDS011;22607;49.550;11.940;2023-07-08T04:07:29;7.82;;;3.38;;
36597;SDS011;22607;49.550;11.940;2023-07-08T04:09:56;8.15;;;3.47;;
36597;SDS011;22607;49.550;11.940;2023-07-08T04:12:22;9.38;;;3.65;;
36597;SDS011;22607;49.550;11.940;2023-07-08T04:14:49;8.23;;;3.10;;
36597;SDS011;22607;49.550;11.940;2023-07-08T04:17:15;7.88;;;3.38;;
36597;SDS011;22607;49.550;11.940;2023-07-08T04:19:44;9.60;;;3.63;;
36597;SDS011;22607;49.550;11.940;2023-07-08T04:22:11;8.43;;;3.75;;
36597;SDS011;22607;49.550;11.940;2023-07-08T04:24:39;8.40;;;3.58;;
36597;SDS011;22607;49.550;11.940;2023-07-08T04:27:05;9.30;;;3.83;;
36597;SDS011;22607;49.550;11.940;2023-07-08T04:29:34;7.93;;;3.22;;
36597;SDS011;22607;49.550;11.940;2023-07-08T04:32:01;9.13;;;3.28;;
36597;SDS011;22607;49.550;11.940;2023-07-08T04:34:27;8.05;;;3.22;;
36597;SDS011;22607;49.550;11.940;2023-07-08T04:36:55;8.55;;;3.47;;
36597;SDS011;22607;49.550;11.940;2023-07-08T04:39:21;8.80;;;3.72;;
36597;SDS011;22607;49.550;11.940;2023-07-08T04:41:48;8.15;;;3.47;;
36597;SDS011;22607;49.550;11.940;2023-07-08T04:44:14;7.90;;;3.30;;
36597;SDS011;22607;49.550;11.940;2023-07-08T04:46:49;9.30;;;3.60;;
36597;SDS011;22607;49.550;11.940;2023-07-08T04:49:20;8.73;;;3.88;;
36597;SDS011;22607;49.550;11.940;2023-07-08T04:51:47;7.70;;;3.42;;
36597;SDS011;22607;49.550;11.940;2023-07-08T04:54:14;8.35;;;3.30;;
36597;SDS011;22607;49.550;11.940;2023-07-08T04:59:09;7.97;;;3.63;;
36597;SDS011;22607;49.550;11.940;2023-07-08T05:01:41;8.00;;;3.35;;
36597;SDS011;22607;49.550;11.940;2023-07-08T05:04:09;8.00;;;3.80;;
36597;SDS011;22607;49.550;11.940;2023-07-08T05:06:37;8.55;;;3.75;;
36597;SDS011;22607;49.550;11.940;2023-07-08T05:09:04;8.23;;;3.55;;
36597;SDS011;22607;49.550;11.940;2023-07-08T05:11:31;8.98;;;3.85;;
36597;SDS011;22607;49.550;11.940;2023-07-08T05:13:58;9.48;;;3.95;;
36597;SDS011;22607;49.550;11.940;2023-07-08T05:16:25;7.75;;;3.53;;
36597;SDS011;22607;49.550;11.940;2023-07-08T05:18:52;8.25;;;3.63;;
36597;SDS011;22607;49.550;11.940;2023-07-08T05:21:19;8.20;;;3.45;;
36597;SDS011;22607;49.550;11.940;2023-07-08T05:23:48;7.93;;;3.30;;
36597;SDS011;22607;49.550;11.940;2023-07-08T05:26:15;7.85;;;3.13;;
36597;SDS011;22607;49.550;11.940;2023-07-08T05:28:43;9.00;;;3.75;;
36597;SDS011;22607;49.550;11.940;2023-07-08T05:31:09;8.18;;;3.60;;
36597;SDS011;22607;49.550;11.940;2023-07-08T05:33:36;7.80;;;3.40;;
36597;SDS011;22607;49.550;11.940;2023-07-08T05:36:03;8.05;;;3.35;;
36597;SDS011;22607;49.550;11.940;2023-07-08T05:38:30;8.30;;;3.53;;
36597;SDS011;22607;49.550;11.940;2023-07-08T05:40:57;8.65;;;3.67;;
36597;SDS011;22607;49.550;11.940;2023-07-08T05:43:26;7.70;;;3.30;;
36597;SDS011;22607;49.550;11.940;2023-07-08T05:45:57;8.45;;;3.78;;
36597;SDS011;22607;49.550;11.940;2023-07-08T05:48:38;8.23;;;3.72;;
36597;SDS011;22607;49.550;11.940;2023-07-08T05:51:04;8.43;;;4.03;;
36597;SDS011;22607;49.550;11.940;2023-07-08T05:53:31;8.35;;;3.40;;
36597;SDS011;22607;49.550;11.940;2023-07-08T05:55:58;8.25;;;3.70;;
36597;SDS011;22607;49.550;11.940;2023-07-08T05:58:24;9.43;;;3.92;;
36597;SDS011;22607;49.550;11.940;2023-07-08T06:00:58;7.78;;;3.42;;
36597;SDS011;22607;49.550;11.940;2023-07-08T06:03:26;8.88;;;3.85;;
36597;SDS011;22607;49.550;11.940;2023-07-08T06:05:52;8.63;;;3.95;;
36597;SDS011;22607;49.550;11.940;2023-07-08T06:08:19;8.82;;;3.90;;
36597;SDS011;22607;49.550;11.940;2023-07-08T06:10:45;9.50;;;4.75;;
36597;SDS011;22607;49.550;11.940;2023-07-08T06:13:12;8.90;;;3.90;;
36597;SDS011;22607;49.550;11.940;2023-07-08T06:15:39;8.50;;;3.80;;
36597;SDS011;22607;49.550;11.940;2023-07-08T06:18:07;8.63;;;3.85;;
36597;SDS011;22607;49.550;11.940;2023-07-08T06:20:34;9.35;;;4.00;;
36597;SDS011;22607;49.550;11.940;2023-07-08T06:23:01;8.80;;;3.60;;
36597;SDS011;22607;49.550;11.940;2023-07-08T06:25:29;9.82;;;4.32;;
36597;SDS011;22607;49.550;11.940;2023-07-08T06:27:56;8.20;;;3.65;;
36597;SDS011;22607;49.550;11.940;2023-07-08T06:30:23;8.40;;;3.70;;
36597;SDS011;22607;49.550;11.940;2023-07-08T06:32:49;7.95;;;3.60;;
36597;SDS011;22607;49.550;11.940;2023-07-08T06:35:17;9.57;;;4.40;;
36597;SDS011;22607;49.550;11.940;2023-07-08T06:37:45;8.23;;;3.70;;
36597;SDS011;22607;49.550;11.940;2023-07-08T06:40:11;8.30;;;4.05;;
36597;SDS011;22607;49.550;11.940;2023-07-08T06:42:38;8.90;;;4.15;;
36597;SDS011;22607;49.550;11.940;2023-07-08T06:45:05;8.38;;;3.60;;
36597;SDS011;22607;49.550;11.940;2023-07-08T06:47:32;9.05;;;4.00;;
36597;SDS011;22607;49.550;11.940;2023-07-08T06:49:59;8.02;;;3.40;;
36597;SDS011;22607;49.550;11.940;2023-07-08T06:52:25;9.95;;;3.80;;
36597;SDS011;22607;49.550;11.940;2023-07-08T06:54:52;8.90;;;4.00;;
36597;SDS011;22607;49.550;11.940;2023-07-08T06:57:18;9.80;;;4.05;;
36597;SDS011;22607;49.550;11.940;2023-07-08T06:59:45;8.20;;;3.72;;
36597;SDS011;22607;49.550;11.940;2023-07-08T07:02:11;9.18;;;3.90;;
36597;SDS011;22607;49.550;11.940;2023-07-08T07:04:40;8.60;;;4.13;;
36597;SDS011;22607;49.550;11.940;2023-07-08T07:07:07;7.85;;;3.47;;
36597;SDS011;22607;49.550;11.940;2023-07-08T07:09:33;9.23;;;4.18;;
36597;SDS011;22607;49.550;11.940;2023-07-08T07:12:00;8.52;;;3.80;;
36597;SDS011;22607;49.550;11.940;2023-07-08T07:14:27;8.27;;;3.40;;
36597;SDS011;22607;49.550;11.940;2023-07-08T07:16:57;9.27;;;3.60;;
36597;SDS011;22607;49.550;11.940;2023-07-08T07:19:33;8.73;;;3.78;;
36597;SDS011;22607;49.550;11.940;2023-07-08T07:22:00;8.32;;;3.42;;
36597;SDS011;22607;49.550;11.940;2023-07-08T07:24:26;9.90;;;3.78;;
36597;SDS011;22607;49.550;11.940;2023-07-08T07:26:53;9.32;;;3.40;;
36597;SDS011;22607;49.550;11.940;2023-07-08T07:29:21;9.25;;;3.97;;
36597;SDS011;22607;49.550;11.940;2023-07-08T07:31:49;11.38;;;4.00;;
36597;SDS011;22607;49.550;11.940;2023-07-08T07:34:17;7.85;;;3.85;;
36597;SDS011;22607;49.550;11.940;2023-07-08T07:36:44;9.02;;;3.75;;
36597;SDS011;22607;49.550;11.940;2023-07-08T07:39:11;8.57;;;4.30;;
36597;SDS011;22607;49.550;11.940;2023-07-08T07:41:37;7.65;;;3.40;;
36597;SDS011;22607;49.550;11.940;2023-07-08T07:44:04;8.95;;;3.50;;
36597;SDS011;22607;49.550;11.940;2023-07-08T07:46:31;8.70;;;3.60;;
36597;SDS011;22607;49.550;11.940;2023-07-08T07:48:57;8.85;;;4.20;;
36597;SDS011;22607;49.550;11.940;2023-07-08T07:51:24;8.40;;;3.88;;
36597;SDS011;22607;49.550;11.940;2023-07-08T07:53:50;10.25;;;3.42;;
36597;SDS011;22607;49.550;11.940;2023-07-08T07:56:17;8.40;;;3.60;;
36597;SDS011;22607;49.550;11.940;2023-07-08T07:58:43;8.32;;;3.70;;
36597;SDS011;22607;49.550;11.940;2023-07-08T08:01:10;9.20;;;4.20;;
36597;SDS011;22607;49.550;11.940;2023-07-08T08:03:39;7.72;;;3.42;;
36597;SDS011;22607;49.550;11.940;2023-07-08T08:06:06;8.63;;;4.03;;
36597;SDS011;22607;49.550;11.940;2023-07-08T08:08:32;9.43;;;4.10;;
36597;SDS011;22607;49.550;11.940;2023-07-08T08:11:02;8.93;;;3.63;;
36597;SDS011;22607;49.550;11.940;2023-07-08T08:13:28;8.40;;;3.88;;
36597;SDS011;22607;49.550;11.940;2023-07-08T08:15:58;8.38;;;3.53;;
36597;SDS011;22607;49.550;11.940;2023-07-08T08:20:53;7.30;;;3.28;;
36597;SDS011;22607;49.550;11.940;2023-07-08T08:23:19;9.15;;;3.50;;
36597;SDS011;22607;49.550;11.940;2023-07-08T08:25:46;7.85;;;3.40;;
36597;SDS011;22607;49.550;11.940;2023-07-08T08:28:12;7.47;;;3.22;;
36597;SDS011;22607;49.550;11.940;2023-07-08T08:30:39;8.25;;;3.22;;
36597;SDS011;22607;49.550;11.940;2023-07-08T08:33:05;10.02;;;3.50;;
36597;SDS011;22607;49.550;11.940;2023-07-08T08:35:32;8.70;;;3.47;;
36597;SDS011;22607;49.550;11.940;2023-07-08T08:37:59;8.68;;;3.33;;
36597;SDS011;22607;49.550;11.940;2023-07-08T08:40:25;10.15;;;3.65;;
36597;SDS011;22607;49.550;11.940;2023-07-08T08:43:02;7.90;;;2.90;;
36597;SDS011;22607;49.550;11.940;2023-07-08T08:45:34;7.97;;;3.28;;
36597;SDS011;22607;49.550;11.940;2023-07-08T08:48:09;11.55;;;3.47;;
36597;SDS011;22607;49.550;11.940;2023-07-08T08:51:22;8.10;;;3.40;;
36597;SDS011;22607;49.550;11.940;2023-07-08T08:53:32;8.25;;;3.15;;
36597;SDS011;22607;49.550;11.940;2023-07-08T08:56:03;7.95;;;3.03;;
36597;SDS011;22607;49.550;11.940;2023-07-08T08:58:40;8.65;;;3.13;;
36597;SDS011;22607;49.550;11.940;2023-07-08T09:01:14;7.30;;;2.80;;
36597;SDS011;22607;49.550;11.940;2023-07-08T09:04:00;7.30;;;2.78;;
36597;SDS011;22607;49.550;11.940;2023-07-08T09:06:32;8.13;;;3.10;;
36597;SDS011;22607;49.550;11.940;2023-07-08T09:09:06;8.13;;;3.13;;
36597;SDS011;22607;49.550;11.940;2023-07-08T09:11:51;7.30;;;2.90;;
36597;SDS011;22607;49.550;11.940;2023-07-08T09:14:28;8.07;;;3.13;;
36597;SDS011;22607;49.550;11.940;2023-07-08T09:17:11;9.70;;;3.00;;
36597;SDS011;22607;49.550;11.940;2023-07-08T09:23:30;7.63;;;2.90;;
36597;SDS011;22607;49.550;11.940;2023-07-08T09:25:59;7.80;;;2.63;;
36597;SDS011;22607;49.550;11.940;2023-07-08T09:28:35;7.63;;;2.85;;
36597;SDS011;22607;49.550;11.940;2023-07-08T09:31:07;6.70;;;2.72;;
36597;SDS011;22607;49.550;11.940;2023-07-08T09:33:45;7.10;;;2.47;;
36597;SDS011;22607;49.550;11.940;2023-07-08T09:36:33;7.57;;;2.80;;
36597;SDS011;22607;49.550;11.940;2023-07-08T09:38:58;8.00;;;2.83;;
36597;SDS011;22607;49.550;11.940;2023-07-08T09:41:30;8.20;;;2.70;;
36597;SDS011;22607;49.550;11.940;2023-07-08T09:44:03;6.82;;;2.65;;
36597;SDS011;22607;49.550;11.940;2023-07-08T09:46:40;9.13;;;3.03;;
36597;SDS011;22607;49.550;11.940;2023-07-08T09:49:17;7.38;;;2.75;;
36597;SDS011;22607;49.550;11.940;2023-07-08T09:51:45;7.72;;;2.88;;
36597;SDS011;22607;49.550;11.940;2023-07-08T09:54:12;8.27;;;2.78;;
36597;SDS011;22607;49.550;11.940;2023-07-08T09:56:40;8.63;;;2.97;;
36597;SDS011;22607;49.550;11.940;2023-07-08T09:59:11;8.70;;;2.92;;
36597;SDS011;22607;49.550;11.940;2023-07-08T10:01:41;7.07;;;2.47;;
36597;SDS011;22607;49.550;11.940;2023-07-08T10:04:10;8.85;;;2.55;;
36597;SDS011;22607;49.550;11.940;2023-07-08T10:06:38;7.65;;;2.63;;
36597;SDS011;22607;49.550;11.940;2023-07-08T10:09:10;6.53;;;2.33;;
36597;SDS011;22607;49.550;11.940;2023-07-08T10:11:52;7.30;;;2.30;;
36597;SDS011;22607;49.550;11.940;2023-07-08T10:17:10;6.90;;;2.50;;
36597;SDS011;22607;49.550;11.940;2023-07-08T10:25:16;7.75;;;2.80;;
36597;SDS011;22607;49.550;11.940;2023-07-08T10:28:06;10.75;;;3.38;;
36597;SDS011;22607;49.550;11.940;2023-07-08T10:33:36;6.97;;;2.38;;
36597;SDS011;22607;49.550;11.940;2023-07-08T10:44:37;7.50;;;3.05;;
36597;SDS011;22607;49.550;11.940;2023-07-08T10:55:59;6.50;;;2.50;;
36597;SDS011;22607;49.550;11.940;2023-07-08T11:07:33;7.65;;;2.92;;
36597;SDS011;22607;49.550;11.940;2023-07-08T11:10:09;7.50;;;2.50;;
36597;SDS011;22607;49.550;11.940;2023-07-08T11:12:49;6.50;;;2.40;;
36597;SDS011;22607;49.550;11.940;2023-07-08T11:20:50;7.65;;;2.70;;
36597;SDS011;22607;49.550;11.940;2023-07-08T11:26:16;6.65;;;2.42;;
36597;SDS011;22607;49.550;11.940;2023-07-08T11:28:54;8.98;;;3.00;;
36597;SDS011;22607;49.550;11.940;2023-07-08T11:31:24;6.47;;;2.50;;
36597;SDS011;22607;49.550;11.940;2023-07-08T11:33:54;8.32;;;2.42;;
36597;SDS011;22607;49.550;11.940;2023-07-08T11:36:21;6.40;;;2.22;;
36597;SDS011;22607;49.550;11.940;2023-07-08T11:38:51;6.68;;;2.47;;
36597;SDS011;22607;49.550;11.940;2023-07-08T11:41:20;6.50;;;2.40;;
36597;SDS011;22607;49.550;11.940;2023-07-08T11:43:51;6.25;;;2.28;;
36597;SDS011;22607;49.550;11.940;2023-07-08T11:46:26;7.82;;;3.22;;
36597;SDS011;22607;49.550;11.940;2023-07-08T11:49:02;7.20;;;2.58;;
36597;SDS011;22607;49.550;11.940;2023-07-08T11:51:31;7.25;;;2.80;;
36597;SDS011;22607;49.550;11.940;2023-07-08T11:56:46;6.30;;;2.40;;
36597;SDS011;22607;49.550;11.940;2023-07-08T11:59:24;7.45;;;2.90;;
36597;SDS011;22607;49.550;11.940;2023-07-08T12:04:56;6.75;;;2.40;;
36597;SDS011;22607;49.550;11.940;2023-07-08T12:08:00;8.75;;;2.92;;
36597;SDS011;22607;49.550;11.940;2023-07-08T12:13:01;7.85;;;2.60;;
36597;SDS011;22607;49.550;11.940;2023-07-08T12:15:30;7.00;;;2.50;;
36597;SDS011;22607;49.550;11.940;2023-07-08T12:17:59;6.80;;;2.38;;
36597;SDS011;22607;49.550;11.940;2023-07-08T12:20:31;7.53;;;2.80;;
36597;SDS011;22607;49.550;11.940;2023-07-08T12:23:02;6.70;;;2.58;;
36597;SDS011;22607;49.550;11.940;2023-07-08T12:25:30;7.07;;;2.40;;
36597;SDS011;22607;49.550;11.940;2023-07-08T12:28:01;6.63;;;2.53;;
36597;SDS011;22607;49.550;11.940;2023-07-08T12:30:28;6.38;;;2.45;;
36597;SDS011;22607;49.550;11.940;2023-07-08T12:32:58;6.80;;;2.50;;
36597;SDS011;22607;49.550;11.940;2023-07-08T12:35:27;6.70;;;2.45;;
36597;SDS011;22607;49.550;11.940;2023-07-08T12:38:01;8.00;;;2.60;;
36597;SDS011;22607;49.550;11.940;2023-07-08T12:40:31;8.68;;;2.70;;
36597;SDS011;22607;49.550;11.940;2023-07-08T12:42:58;6.60;;;2.33;;
36597;SDS011;22607;49.550;11.940;2023-07-08T12:45:29;7.72;;;2.70;;
36597;SDS011;22607;49.550;11.940;2023-07-08T12:47:57;8.07;;;2.72;;
36597;SDS011;22607;49.550;11.940;2023-07-08T12:50:24;6.68;;;2.45;;
36597;SDS011;22607;49.550;11.940;2023-07-08T12:52:51;7.00;;;2.88;;
36597;SDS011;22607;49.550;11.940;2023-07-08T12:55:17;6.60;;;2.53;;
36597;SDS011;22607;49.550;11.940;2023-07-08T12:57:47;9.05;;;3.03;;
36597;SDS011;22607;49.550;11.940;2023-07-08T13:00:25;7.70;;;2.78;;
36597;SDS011;22607;49.550;11.940;2023-07-08T13:03:07;6.85;;;2.90;;
36597;SDS011;22607;49.550;11.940;2023-07-08T13:05:40;8.30;;;2.83;;
36597;SDS011;22607;49.550;11.940;2023-07-08T13:08:10;8.07;;;3.50;;
36597;SDS011;22607;49.550;11.940;2023-07-08T13:10:39;7.40;;;2.80;;
36597;SDS011;22607;49.550;11.940;2023-07-08T13:13:12;8.35;;;3.35;;
36597;SDS011;22607;49.550;11.940;2023-07-08T13:15:47;7.30;;;2.90;;
36597;SDS011;22607;49.550;11.940;2023-07-08T13:18:31;7.63;;;3.13;;
36597;SDS011;22607;49.550;11.940;2023-07-08T13:21:00;7.82;;;2.95;;
36597;SDS011;22607;49.550;11.940;2023-07-08T13:23:30;7.60;;;3.22;;
36597;SDS011;22607;49.550;11.940;2023-07-08T13:25:56;6.93;;;2.75;;
36597;SDS011;22607;49.550;11.940;2023-07-08T13:28:35;7.22;;;2.92;;
36597;SDS011;22607;49.550;11.940;2023-07-08T13:31:15;7.07;;;2.83;;
36597;SDS011;22607;49.550;11.940;2023-07-08T13:33:54;6.65;;;2.60;;
36597;SDS011;22607;49.550;11.940;2023-07-08T13:36:32;7.30;;;3.00;;
36597;SDS011;22607;49.550;11.940;2023-07-08T13:39:02;7.10;;;2.72;;
36597;SDS011;22607;49.550;11.940;2023-07-08T13:41:35;7.25;;;2.90;;
36597;SDS011;22607;49.550;11.940;2023-07-08T13:44:05;7.50;;;2.90;;
36597;SDS011;22607;49.550;11.940;2023-07-08T13:46:35;6.53;;;2.75;;
36597;SDS011;22607;49.550;11.940;2023-07-08T13:49:18;7.20;;;2.53;;
36597;SDS011;22607;49.550;11.940;2023-07-08T13:51:48;6.72;;;2.58;;
36597;SDS011;22607;49.550;11.940;2023-07-08T13:56:46;6.53;;;2.45;;
36597;SDS011;22607;49.550;11.940;2023-07-08T13:59:21;7.93;;;3.15;;
36597;SDS011;22607;49.550;11.940;2023-07-08T14:01:50;7.18;;;2.80;;
36597;SDS011;22607;49.550;11.940;2023-07-08T14:04:27;7.20;;;2.88;;
36597;SDS011;22607;49.550;11.940;2023-07-08T14:06:57;7.55;;;2.92;;
36597;SDS011;22607;49.550;11.940;2023-07-08T14:09:23;7.97;;;2.75;;
36597;SDS011;22607;49.550;11.940;2023-07-08T14:11:53;7.25;;;2.63;;
36597;SDS011;22607;49.550;11.940;2023-07-08T14:14:19;7.25;;;2.70;;
36597;SDS011;22607;49.550;11.940;2023-07-08T14:16:50;7.68;;;2.90;;
36597;SDS011;22607;49.550;11.940;2023-07-08T14:19:21;7.18;;;2.70;;
36597;SDS011;22607;49.550;11.940;2023-07-08T14:22:01;7.28;;;2.90;;
36597;SDS011;22607;49.550;11.940;2023-07-08T14:24:32;7.43;;;2.80;;
36597;SDS011;22607;49.550;11.940;2023-07-08T14:26:59;8.40;;;2.88;;
36597;SDS011;22607;49.550;11.940;2023-07-08T14:29:25;7.20;;;2.97;;
36597;SDS011;22607;49.550;11.940;2023-07-08T14:31:52;7.20;;;2.80;;
36597;SDS011;22607;49.550;11.940;2023-07-08T14:34:21;6.72;;;2.58;;
36597;SDS011;22607;49.550;11.940;2023-07-08T14:36:51;6.90;;;2.78;;
36597;SDS011;22607;49.550;11.940;2023-07-08T14:39:19;7.93;;;3.20;;
36597;SDS011;22607;49.550;11.940;2023-07-08T14:41:46;7.93;;;3.00;;
36597;SDS011;22607;49.550;11.940;2023-07-08T14:44:19;7.38;;;3.20;;
36597;SDS011;22607;49.550;11.940;2023-07-08T14:46:49;6.75;;;2.75;;
36597;SDS011;22607;49.550;11.940;2023-07-08T14:49:20;8.10;;;3.30;;
36597;SDS011;22607;49.550;11.940;2023-07-08T14:51:48;8.55;;;2.97;;
36597;SDS011;22607;49.550;11.940;2023-07-08T14:54:16;7.65;;;2.90;;
36597;SDS011;22607;49.550;11.940;2023-07-08T14:56:43;7.50;;;2.60;;
36597;SDS011;22607;49.550;11.940;2023-07-08T14:59:12;7.85;;;3.03;;
36597;SDS011;22607;49.550;11.940;2023-07-08T15:01:43;7.32;;;2.90;;
36597;SDS011;22607;49.550;11.940;2023-07-08T15:04:11;7.85;;;3.15;;
36597;SDS011;22607;49.550;11.940;2023-07-08T15:06:40;7.53;;;3.03;;
36597;SDS011;22607;49.550;11.940;2023-07-08T15:09:08;7.00;;;2.70;;
36597;SDS011;22607;49.550;11.940;2023-07-08T15:11:34;7.50;;;2.97;;
36597;SDS011;22607;49.550;11.940;2023-07-08T15:14:04;7.55;;;3.08;;
36597;SDS011;22607;49.550;11.940;2023-07-08T15:16:36;7.35;;;3.05;;
36597;SDS011;22607;49.550;11.940;2023-07-08T15:19:07;7.40;;;3.00;;
36597;SDS011;22607;49.550;11.940;2023-07-08T15:21:37;7.85;;;2.85;;
36597;SDS011;22607;49.550;11.940;2023-07-08T15:24:06;6.93;;;2.63;;
36597;SDS011;22607;49.550;11.940;2023-07-08T15:26:34;8.07;;;2.92;;
36597;SDS011;22607;49.550;11.940;2023-07-08T15:29:01;7.93;;;2.80;;
36597;SDS011;22607;49.550;11.940;2023-07-08T15:31:28;6.82;;;2.58;;
36597;SDS011;22607;49.550;11.940;2023-07-08T15:33:59;7.45;;;3.00;;
36597;SDS011;22607;49.550;11.940;2023-07-08T15:36:25;8.35;;;3.22;;
36597;SDS011;22607;49.550;11.940;2023-07-08T15:38:52;7.35;;;2.90;;
36597;SDS011;22607;49.550;11.940;2023-07-08T15:41:22;8.55;;;2.90;;
36597;SDS011;22607;49.550;11.940;2023-07-08T15:43:53;6.93;;;2.90;;
36597;SDS011;22607;49.550;11.940;2023-07-08T15:46:20;8.27;;;2.83;;
36597;SDS011;22607;49.550;11.940;2023-07-08T15:48:50;7.53;;;3.25;;
36597;SDS011;22607;49.550;11.940;2023-07-08T15:51:16;7.95;;;3.17;;
36597;SDS011;22607;49.550;11.940;2023-07-08T15:53:44;8.07;;;3.30;;
36597;SDS011;22607;49.550;11.940;2023-07-08T15:56:12;7.45;;;3.22;;
36597;SDS011;22607;49.550;11.940;2023-07-08T15:58:41;8.38;;;3.22;;
36597;SDS011;22607;49.550;11.940;2023-07-08T16:01:10;9.13;;;3.60;;
36597;SDS011;22607;49.550;11.940;2023-07-08T16:03:48;7.65;;;3.47;;
36597;SDS011;22607;49.550;11.940;2023-07-08T16:06:16;8.73;;;3.53;;